Latest Weather Observations for Point Perpendicular

IDN60801

Issued at 3:35 pm EST Thursday 24 April 2014 (issued every 30 minutes, with the page automatically refreshed every 10 minutes)

About weather observations | Map of weather stations | Latest weather observations for NSW | Other Formats
Station Details ID: 068151 Name: POINT PERPENDICULAR AWS Lat: -35.09 Lon: 150.80 Height: 85.0 m
Data from the previous 72 hours. | See also: Recent months at Point Perpendicular
Date/Time
EST
Temp
°C
App
Temp
°C
Dew
Point
Rel
Hum
%
Delta-T
°C
Wind Press
QNH
hPa
Press
MSL
hPa
Rain
since 9 am
mm
Dir
 
Spd
km/h
Gust
km/h
Spd
kts
Gust
kts
24/03:30pm 25.1 21.9 12.0 44 7.5 WNW 20 30 11 16 1011.6 - 0.0
24/03:00pm 25.5 21.9 11.7 42 7.9 W 22 39 12 21 1011.4 1011.2 0.0
24/02:30pm 25.7 21.5 11.1 40 8.3 W 24 41 13 22 1011.2 - 0.0
24/02:00pm 25.7 20.7 9.5 36 8.9 W 26 41 14 22 1011.0 1010.8 0.0
24/01:30pm 25.6 21.8 9.8 37 8.7 W 20 33 11 18 1010.9 - 0.0
24/01:00pm 25.3 22.4 9.6 37 8.6 W 15 22 8 12 1011.3 1011.0 0.0
24/12:30pm 24.7 22.9 9.4 38 8.4 WSW 9 15 5 8 1011.6 - 0.0
24/12:00pm 24.8 22.0 8.7 36 8.7 WNW 13 26 7 14 1012.1 1011.9 0.0
24/11:30am 24.0 21.8 8.0 36 8.5 NW 9 22 5 12 1012.3 - 0.0
24/11:00am 22.6 20.8 7.2 37 8.0 NW 6 9 3 5 1012.7 1012.5 0.0
24/10:30am 22.0 19.6 8.5 42 7.2 WNW 11 17 6 9 1012.8 - 0.0
24/10:00am 21.4 18.8 7.6 41 7.2 W 11 20 6 11 1013.0 1012.8 0.0
24/09:30am 21.2 19.0 7.8 42 7.0 WNW 9 17 5 9 1013.0 - 0.0
24/09:00am 20.6 18.2 8.6 46 6.3 NW 11 15 6 8 1012.9 1012.7 0.0
24/08:30am 20.3 17.4 8.3 46 6.3 NW 13 20 7 11 1012.6 - 0.0
24/08:00am 20.2 16.9 7.9 45 6.4 NW 15 24 8 13 1012.3 1012.1 0.0
24/07:30am 20.2 17.3 8.2 46 6.3 NNW 13 22 7 12 1012.1 - 0.0
24/07:00am 20.6 16.8 7.6 43 6.7 NW 17 26 9 14 1011.8 1011.6 0.0
24/06:30am 20.6 17.0 8.3 45 6.4 NW 17 24 9 13 1011.7 - 0.0
24/06:00am 20.7 18.1 9.3 48 6.1 N 13 17 7 9 1011.7 1011.5 0.0
24/05:30am 18.8 16.3 9.6 55 4.9 N 13 20 7 11 1011.7 - 0.0
24/05:00am 19.7 17.0 9.0 50 5.7 NNW 13 15 7 8 1011.8 1011.6 0.0
24/04:30am 19.6 17.0 9.5 52 5.4 NNW 13 17 7 9 1011.8 - 0.0
24/04:00am 19.7 17.1 9.3 51 5.5 N 13 17 7 9 1011.7 1011.5 0.0
24/03:30am 19.5 17.3 10.8 57 4.7 N 13 15 7 8 1011.7 - 0.0
24/03:00am 18.9 17.0 11.7 63 4.0 N 13 15 7 8 1012.1 1011.9 0.0
24/02:30am 18.7 17.1 12.9 69 3.3 N 13 15 7 8 1012.3 - 0.0
24/02:00am 18.7 17.4 13.8 73 2.8 N 13 15 7 8 1012.5 1012.3 0.0
24/01:30am 19.2 18.2 14.5 74 2.7 N 13 17 7 9 1012.7 - 0.0
24/01:00am 19.3 18.5 15.0 76 2.5 N 13 15 7 8 1012.9 1012.7 0.0
24/12:30am 19.6 18.2 14.6 73 2.9 N 15 17 8 9 1013.2 - 0.0
24/12:00am 19.8 18.2 14.0 69 3.4 N 15 17 8 9 1013.4 1013.2 0.0
 
Date/Time
EST
Temp
°C
App
Temp
°C
Dew
Point
Rel
Hum
%
Delta-T
°C
Wind Press
QNH
hPa
Press
MSL
hPa
Rain
since 9 am
mm
Dir
 
Spd
km/h
Gust
km/h
Spd
kts
Gust
kts
23/11:30pm 19.3 18.1 14.1 72 3.0 N 13 15 7 8 1013.4 - 0.0
23/11:00pm 19.9 18.8 15.3 75 2.7 N 15 17 8 9 1013.6 1013.4 0.0
23/10:30pm 20.0 19.3 15.4 75 2.7 N 13 20 7 11 1013.9 - 0.0
23/10:00pm 20.1 18.5 15.1 73 3.0 N 17 24 9 13 1013.9 1013.7 0.0
23/09:30pm 20.2 18.4 15.6 75 2.7 N 19 24 10 13 1014.1 - 0.0
23/09:00pm 20.0 18.1 15.8 77 2.5 N 20 30 11 16 1014.1 1013.9 0.0
23/08:30pm 19.9 18.0 15.7 77 2.5 N 20 30 11 16 1014.3 - 0.0
23/08:00pm 19.9 17.8 15.3 75 2.7 N 20 30 11 16 1014.3 1014.1 0.0
23/07:30pm 19.8 17.7 14.8 73 2.9 N 19 26 10 14 1014.4 - 0.0
23/07:00pm 19.5 18.0 15.4 77 2.4 N 17 24 9 13 1014.4 1014.2 0.0
23/06:30pm 19.3 17.8 15.4 78 2.3 N 17 20 9 11 1014.3 - 0.0
23/06:00pm 19.3 17.5 15.6 79 2.2 NNE 19 22 10 12 1014.2 1014.0 0.0
23/05:30pm 19.7 18.6 15.4 76 2.5 N 15 20 8 11 1014.2 - 0.0
23/05:00pm 20.5 19.9 16.7 79 2.3 N 15 22 8 12 1014.1 1013.9 0.0
23/04:30pm 21.5 20.9 17.5 78 2.5 NNE 17 24 9 13 1014.0 - 0.0
23/04:00pm 22.2 21.9 16.5 70 3.5 NE 13 17 7 9 1014.0 1013.8 0.0
23/03:30pm 22.5 22.3 16.8 70 3.5 NE 13 17 7 9 1014.2 - 0.0
23/03:00pm 22.8 23.6 17.3 71 3.4 ENE 9 15 5 8 1014.3 1014.1 0.0
23/02:30pm 22.4 23.1 17.1 72 3.3 ENE 9 15 5 8 1014.4 - 0.0
23/02:00pm 22.3 23.5 17.4 74 3.0 ESE 7 13 4 7 1014.8 1014.6 0.0
23/01:30pm 21.7 22.3 16.9 74 2.9 SSE 9 17 5 9 1015.1 - 0.0
23/01:00pm 22.0 22.6 16.9 73 3.1 S 9 17 5 9 1015.4 1015.2 0.0
23/12:30pm 22.0 22.8 17.4 75 2.8 S 9 15 5 8 1015.8 - 0.0
23/12:00pm 21.6 21.8 16.8 74 2.9 SSE 11 17 6 9 1016.0 1015.8 0.0
23/11:30am 20.6 20.4 16.6 78 2.4 S 13 20 7 11 1016.6 - 0.0
23/11:00am 20.4 19.4 14.5 69 3.4 S 13 20 7 11 1017.2 1017.0 0.0
23/10:30am 20.3 20.0 12.8 62 4.3 SSW 6 15 3 8 1017.3 - 0.0
23/10:00am 20.1 19.6 12.8 63 4.1 SW 7 13 4 7 1017.4 1017.2 0.0
23/09:30am 19.3 18.2 11.8 62 4.2 W 9 11 5 6 1017.5 - 0.0
23/09:00am 18.3 16.8 11.8 66 3.6 WNW 11 15 6 8 1017.4 1017.2 0.0
23/08:30am 18.4 16.8 10.3 59 4.3 W 9 11 5 6 1017.4 - 0.0
23/08:00am 17.4 15.5 11.7 69 3.1 W 13 17 7 9 1017.2 1017.0 0.0
23/07:30am 15.9 14.3 11.5 75 2.4 WNW 11 17 6 9 1016.8 - 0.0
23/07:00am 15.5 13.8 11.3 76 2.3 WNW 11 15 6 8 1016.7 1016.5 0.0
23/06:30am 14.9 13.0 10.5 75 2.3 NW 11 13 6 7 1016.4 - 0.0
23/06:00am 16.2 14.4 10.7 70 2.9 WNW 11 13 6 7 1016.7 1016.5 0.0
23/05:30am 16.0 14.7 11.2 73 2.6 WNW 9 11 5 6 1016.5 - 0.0
23/05:00am 16.4 15.1 11.3 72 2.8 W 9 13 5 7 1016.4 1016.2 0.0
23/04:30am 16.3 14.6 11.2 72 2.8 W 11 13 6 7 1016.3 - 0.0
23/04:00am 16.4 15.4 11.1 71 2.9 W 7 9 4 5 1016.0 1015.8 0.0
23/03:30am 16.3 14.3 11.5 73 2.6 WNW 13 15 7 8 1015.9 - 0.0
23/03:00am 15.8 14.0 10.8 72 2.7 NW 11 13 6 7 1015.9 1015.7 0.0
23/02:30am 16.4 14.6 10.9 70 3.0 WNW 11 15 6 8 1016.0 - 0.0
23/02:00am 16.1 14.6 10.6 70 2.9 NW 9 11 5 6 1015.9 1015.7 0.0
23/01:30am 15.8 14.0 10.8 72 2.7 NNW 11 13 6 7 1016.2 - 0.0
23/01:00am 16.5 15.2 11.2 71 2.9 NW 9 11 5 6 1016.3 1016.1 0.0
23/12:30am 16.5 14.6 10.6 68 3.2 WNW 11 13 6 7 1016.3 - 0.0
23/12:00am 17.4 16.4 11.0 66 3.5 NW 7 9 4 5 1016.3 1016.1 0.0
 
Date/Time
EST
Temp
°C
App
Temp
°C
Dew
Point
Rel
Hum
%
Delta-T
°C
Wind Press
QNH
hPa
Press
MSL
hPa
Rain
since 9 am
mm
Dir
 
Spd
km/h
Gust
km/h
Spd
kts
Gust
kts
22/11:30pm 18.2 17.0 10.3 60 4.2 WNW 7 9 4 5 1016.1 - 0.0
22/11:00pm 18.8 17.3 10.4 58 4.5 W 9 11 5 6 1016.2 1016.0 0.0
22/10:30pm 19.2 17.2 10.2 56 4.8 WNW 11 20 6 11 1016.2 - 0.0
22/10:00pm 19.2 17.1 9.7 54 5.1 W 11 15 6 8 1016.2 1016.0 0.0
22/09:30pm 19.5 17.5 10.2 55 5.0 WNW 11 15 6 8 1016.3 - 0.0
22/09:00pm 19.7 17.1 10.7 56 4.9 WNW 15 22 8 12 1016.1 1015.9 0.0
22/08:30pm 20.0 16.8 10.1 53 5.3 W 17 24 9 13 1015.8 - 0.0
22/08:00pm 20.3 17.4 9.8 51 5.6 W 15 22 8 12 1015.5 1015.3 0.0
22/07:30pm 20.7 17.8 9.6 49 6.0 W 15 20 8 11 1015.4 - 0.0
22/07:00pm 20.8 18.3 9.7 49 6.0 WNW 13 17 7 9 1015.3 1015.1 0.0
22/06:30pm 21.3 18.9 9.9 48 6.2 WNW 13 20 7 11 1015.0 - 0.0
22/06:00pm 21.3 18.1 9.9 48 6.2 NW 17 22 9 12 1014.5 1014.3 0.0
22/05:30pm 22.0 18.6 9.2 44 6.9 NW 17 26 9 14 1014.2 - 0.0
22/05:00pm 21.3 19.2 11.3 53 5.6 NNW 13 22 7 12 1014.2 1014.0 0.0
22/04:30pm 21.5 19.5 12.6 57 5.1 N 15 22 8 12 1014.2 - 0.0
22/04:00pm 21.8 19.9 14.2 62 4.5 N 17 24 9 13 1014.1 1013.9 0.0
22/03:30pm 22.7 20.7 14.0 58 5.1 N 17 24 9 13 1014.1 - 0.0
22/03:00pm 22.8 21.4 13.3 55 5.5 N 13 22 7 12 1014.0 1013.8 0.0
22/02:30pm 23.2 20.5 12.8 52 6.0 N 19 28 10 15 1014.1 - 0.0
22/02:00pm 24.0 20.5 10.3 42 7.6 N 19 26 10 14 1014.2 1014.0 0.0
22/01:30pm 24.0 20.4 9.9 41 7.7 N 19 28 10 15 1014.3 - 0.0
22/01:00pm 23.7 20.3 11.4 46 6.9 N 20 30 11 16 1014.7 1014.5 0.0
22/12:30pm 23.7 20.8 11.1 45 7.1 N 17 30 9 16 1015.2 - 0.0
22/12:00pm 23.4 20.7 10.5 44 7.1 N 15 26 8 14 1015.6 1015.4 0.0
22/11:30am 22.8 20.2 10.6 46 6.7 NNW 15 22 8 12 1016.2 - 0.0
22/11:00am 22.2 18.6 9.7 45 6.8 N 19 26 10 14 1016.5 1016.3 0.0
22/10:30am 21.4 18.2 9.9 48 6.2 NNW 17 26 9 14 1016.8 - 0.0
22/10:00am 20.4 16.7 9.6 50 5.8 NNW 19 28 10 15 1016.9 1016.7 0.0
22/09:30am 20.7 17.1 9.9 50 5.8 N 19 28 10 15 1017.1 - 0.0
22/09:00am 19.2 16.9 10.5 57 4.7 N 13 20 7 11 1017.4 1017.2 0.0
22/08:30am 18.9 17.4 10.5 58 4.5 N 9 15 5 8 1017.5 - 0.0
22/08:00am 17.8 16.5 11.1 65 3.6 NNW 9 17 5 9 1017.6 1017.4 0.0
22/07:30am 15.9 14.0 10.4 70 2.9 N 11 15 6 8 1017.5 - 0.0
22/07:00am 15.3 13.9 10.9 75 2.3 N 9 13 5 7 1017.2 1017.0 0.0
22/06:30am 14.8 12.8 10.2 74 2.4 N 11 13 6 7 1017.5 - 0.0
22/06:00am 14.8 12.7 11.0 78 2.0 NNW 13 15 7 8 1017.5 1017.3 0.0
22/05:30am 14.9 12.8 11.1 78 2.0 NNW 13 13 7 7 1017.6 - 0.0
22/05:00am 15.0 12.9 11.2 78 2.0 NNW 13 13 7 7 1017.5 1017.3 0.0
22/04:30am 15.1 13.4 11.3 78 2.0 N 11 11 6 6 1017.6 - 0.0
22/04:00am 15.2 13.6 11.6 79 1.9 NNW 11 13 6 7 1017.8 1017.6 0.0
22/03:30am 15.1 13.7 12.1 82 1.6 NW 11 13 6 7 1017.8 - 0.0
22/03:00am 15.1 13.8 12.4 84 1.5 NW 11 13 6 7 1017.9 1017.7 0.0
22/02:30am 15.4 14.7 13.1 86 1.3 NW 9 11 5 6 1018.1 - 0.0
22/02:00am 15.4 14.9 13.8 90 0.9 NW 9 11 5 6 1018.3 1018.1 0.0
22/01:30am 15.6 15.2 14.1 91 0.9 WNW 9 11 5 6 1018.7 - 0.0
22/01:00am 15.4 14.9 13.9 91 0.8 NW 9 11 5 6 1019.0 1018.8 0.0
22/12:30am 15.7 15.3 14.2 91 0.9 WNW 9 11 5 6 1019.3 - 0.0
22/12:00am 15.7 15.3 14.2 91 0.9 NW 9 11 5 6 1019.3 1019.1 0.0
 
Date/Time
EST
Temp
°C
App
Temp
°C
Dew
Point
Rel
Hum
%
Delta-T
°C
Wind Press
QNH
hPa
Press
MSL
hPa
Rain
since 9 am
mm
Dir
 
Spd
km/h
Gust
km/h
Spd
kts
Gust
kts
21/11:30pm 15.9 15.6 14.3 90 0.9 WNW 9 11 5 6 1019.4 - 0.0
21/11:00pm 16.0 15.7 14.4 90 0.9 NW 9 11 5 6 1019.7 1019.5 0.0
21/10:30pm 16.2 16.4 14.6 90 0.9 WNW 7 9 4 5 1020.0 - 0.0
21/10:00pm 16.0 15.6 14.2 89 1.0 NW 9 9 5 5 1020.2 1020.0 0.0
21/09:30pm 16.0 15.6 14.0 88 1.1 NNW 9 11 5 6 1020.2 - 0.0
21/09:00pm 16.5 16.2 14.3 87 1.3 NNW 9 11 5 6 1020.0 1019.8 0.0
21/08:30pm 16.5 16.6 14.0 85 1.4 NNW 6 9 3 5 1019.8 - 0.0
21/08:00pm 17.8 18.0 14.7 82 1.8 WNW 7 9 4 5 1019.9 1019.7 0.0
21/07:30pm 18.1 18.5 15.2 83 1.7 W 7 9 4 5 1019.9 - 0.0
21/07:00pm 18.5 18.7 14.8 79 2.2 WSW 7 9 4 5 1019.8 1019.6 0.0
21/06:30pm 18.8 19.3 15.1 79 2.2 W 6 9 3 5 1019.6 - 0.0
21/06:00pm 18.4 18.9 14.1 76 2.5 SW 4 7 2 4 1019.3 1019.1 0.0
21/05:30pm 19.0 19.0 14.3 74 2.7 SSW 7 9 4 5 1018.9 - 0.0
21/05:00pm 19.1 19.3 14.1 73 2.9 SW 6 9 3 5 1018.9 1018.7 0.0
21/04:30pm 19.3 18.8 13.9 71 3.1 SW 9 15 5 8 1018.9 - 0.0
21/04:00pm 19.8 19.0 14.0 69 3.3 SW 11 15 6 8 1018.9 1018.7 0.0

Other Formats:

Comma delimited format used in spreadsheet applications
http://www.bom.gov.au/fwo/IDN60801/IDN60801.95940.axf

JavaScript Object Notation format (JSON) in row-major order
http://www.bom.gov.au/fwo/IDN60801/IDN60801.95940.json